createdAt,value
2023-03-08T00:02:19.269Z,1.53
2023-03-08T00:04:46.198Z,1.87
2023-03-08T00:07:13.117Z,1.47
2023-03-08T00:09:39.973Z,1.20
2023-03-08T00:12:07.597Z,1.43
2023-03-08T00:14:34.508Z,1.27
2023-03-08T00:17:02.554Z,1.40
2023-03-08T00:19:29.534Z,1.63
2023-03-08T00:21:56.575Z,1.40
2023-03-08T00:24:23.815Z,1.10
2023-03-08T00:26:50.745Z,1.40
2023-03-08T00:29:17.720Z,1.57
2023-03-08T00:31:44.704Z,1.30
2023-03-08T00:34:12.265Z,1.10
2023-03-08T00:36:41.232Z,1.27
2023-03-08T00:39:10.062Z,1.57
2023-03-08T00:41:37.974Z,1.20
2023-03-08T00:44:05.086Z,1.13
2023-03-08T00:46:32.070Z,1.10
2023-03-08T00:48:59.823Z,1.63
2023-03-08T00:51:27.105Z,1.50
2023-03-08T00:53:53.974Z,1.33
2023-03-08T00:56:21.718Z,1.27
2023-03-08T00:58:48.596Z,1.47
2023-03-08T01:01:18.976Z,1.70
2023-03-08T01:03:48.601Z,1.40
2023-03-08T01:06:16.502Z,1.80
2023-03-08T01:08:44.423Z,1.60
2023-03-08T01:11:24.108Z,1.23
2023-03-08T01:13:51.959Z,1.47
2023-03-08T01:16:28.799Z,1.37
2023-03-08T01:18:57.363Z,1.40
2023-03-08T01:21:25.589Z,1.90
2023-03-08T01:23:52.881Z,1.67
2023-03-08T01:26:24.454Z,1.27
2023-03-08T01:28:54.895Z,1.80
2023-03-08T01:31:25.013Z,1.30
2023-03-08T01:33:54.483Z,1.40
2023-03-08T01:36:24.401Z,1.27
2023-03-08T01:38:52.270Z,1.27
2023-03-08T01:41:27.720Z,1.30
2023-03-08T01:43:55.102Z,1.03
2023-03-08T01:46:31.084Z,1.20
2023-03-08T01:49:13.550Z,2.03
2023-03-08T01:51:53.799Z,1.47
2023-03-08T01:54:30.207Z,1.57
2023-03-08T01:57:07.090Z,0.90
2023-03-08T01:59:35.480Z,1.77
2023-03-08T02:02:02.857Z,1.50
2023-03-08T02:04:32.138Z,1.10
2023-03-08T02:06:59.592Z,1.17
2023-03-08T02:09:27.679Z,1.10
2023-03-08T02:11:59.134Z,1.50
2023-03-08T02:14:26.821Z,1.20
2023-03-08T02:16:54.942Z,1.27
2023-03-08T02:19:32.471Z,1.53
2023-03-08T02:21:59.463Z,1.90
2023-03-08T02:24:26.401Z,1.57
2023-03-08T02:27:04.635Z,1.60
2023-03-08T02:29:31.661Z,1.50
2023-03-08T02:31:58.636Z,1.57
2023-03-08T02:34:25.525Z,1.37
2023-03-08T02:36:52.447Z,1.50
2023-03-08T02:39:19.335Z,1.57
2023-03-08T02:41:46.649Z,1.07
2023-03-08T02:44:13.880Z,1.80
2023-03-08T02:46:40.758Z,1.40
2023-03-08T02:49:07.738Z,1.50
2023-03-08T02:51:34.703Z,1.47
2023-03-08T02:54:01.599Z,1.13
2023-03-08T02:56:28.611Z,1.73
2023-03-08T02:58:55.569Z,1.23
2023-03-08T03:01:24.045Z,1.10
2023-03-08T03:03:55.111Z,1.30
2023-03-08T03:06:22.598Z,1.50
2023-03-08T03:08:52.910Z,1.00
2023-03-08T03:11:22.591Z,1.53
2023-03-08T03:13:59.414Z,2.13
2023-03-08T03:16:31.856Z,1.50
2023-03-08T03:18:58.950Z,1.60
2023-03-08T03:21:26.039Z,1.50
2023-03-08T03:23:55.228Z,1.33
2023-03-08T03:26:27.688Z,1.50
2023-03-08T03:28:57.940Z,2.00
2023-03-08T03:31:28.403Z,1.50
2023-03-08T03:33:55.474Z,1.60
2023-03-08T03:36:25.156Z,1.30
2023-03-08T03:38:52.794Z,1.60
2023-03-08T03:41:22.970Z,1.50
2023-03-08T03:43:59.100Z,1.50
2023-03-08T03:46:26.180Z,1.43
2023-03-08T03:48:55.627Z,1.77
2023-03-08T03:51:24.092Z,2.37
2023-03-08T03:54:00.614Z,1.80
2023-03-08T03:56:28.412Z,1.80
2023-03-08T03:58:59.479Z,2.17
2023-03-08T04:01:30.908Z,2.30
2023-03-08T04:04:09.819Z,1.97
2023-03-08T04:06:39.926Z,2.43
2023-03-08T04:09:10.950Z,2.60
2023-03-08T04:11:39.733Z,2.33
2023-03-08T04:14:10.571Z,2.00
2023-03-08T04:16:39.259Z,3.07
2023-03-08T04:19:13.437Z,2.90
2023-03-08T04:21:47.232Z,2.57
2023-03-08T04:24:16.232Z,2.00
2023-03-08T04:26:45.606Z,2.27
2023-03-08T04:29:17.155Z,2.67
2023-03-08T04:31:44.431Z,2.30
2023-03-08T04:34:14.865Z,2.87
2023-03-08T04:36:42.722Z,3.00
2023-03-08T04:39:09.670Z,2.40
2023-03-08T04:41:36.575Z,2.87
2023-03-08T04:44:12.529Z,2.80
2023-03-08T04:46:44.075Z,2.73
2023-03-08T04:49:15.722Z,2.67
2023-03-08T04:51:46.976Z,2.20
2023-03-08T04:54:13.971Z,2.50
2023-03-08T04:56:46.590Z,2.67
2023-03-08T04:59:15.384Z,3.33
2023-03-08T05:01:42.794Z,3.50
2023-03-08T05:04:11.648Z,3.00
2023-03-08T05:06:40.279Z,2.90
2023-03-08T05:09:09.131Z,2.60
2023-03-08T05:11:38.116Z,2.80
2023-03-08T05:14:05.552Z,2.60
2023-03-08T05:16:33.054Z,2.90
2023-03-08T05:18:59.948Z,3.10
2023-03-08T05:21:33.972Z,3.20
2023-03-08T05:24:02.192Z,3.53
2023-03-08T05:26:32.907Z,3.27
2023-03-08T05:29:03.963Z,3.30
2023-03-08T05:31:32.761Z,3.23
2023-03-08T05:34:03.830Z,3.57
2023-03-08T05:36:35.652Z,3.40
2023-03-08T05:39:03.656Z,3.87
2023-03-08T05:41:38.010Z,4.10
2023-03-08T05:44:05.672Z,4.63
2023-03-08T05:46:35.159Z,4.50
2023-03-08T05:49:03.154Z,4.63
2023-03-08T05:51:33.419Z,5.10
2023-03-08T05:54:00.969Z,4.70
2023-03-08T05:56:28.237Z,5.50
2023-03-08T05:59:06.846Z,4.80
2023-03-08T06:01:33.828Z,5.00
2023-03-08T06:04:13.097Z,5.17
2023-03-08T06:06:42.414Z,5.10
2023-03-08T06:09:09.379Z,5.80
2023-03-08T06:11:39.528Z,5.10
2023-03-08T06:14:07.340Z,4.73
2023-03-08T06:16:35.183Z,5.07
2023-03-08T06:19:02.729Z,5.50
2023-03-08T06:21:30.942Z,5.07
2023-03-08T06:24:01.047Z,5.30
2023-03-08T06:26:28.689Z,5.57
2023-03-08T06:28:55.953Z,5.43
2023-03-08T06:31:27.325Z,5.20
2023-03-08T06:33:54.587Z,5.50
2023-03-08T06:36:25.126Z,5.30
2023-03-08T06:38:51.999Z,6.60
2023-03-08T06:41:20.371Z,6.77
2023-03-08T06:43:51.513Z,6.00
2023-03-08T06:46:19.503Z,6.00
2023-03-08T06:48:47.766Z,6.10
2023-03-08T06:51:16.202Z,5.33
2023-03-08T06:53:45.952Z,5.67
2023-03-08T06:56:21.426Z,5.63
2023-03-08T06:58:50.780Z,5.73
2023-03-08T07:01:17.963Z,5.53
2023-03-08T07:03:45.439Z,6.90
2023-03-08T07:06:12.710Z,5.40
2023-03-08T07:08:40.108Z,6.40
2023-03-08T07:11:09.698Z,5.40
2023-03-08T07:13:37.478Z,5.90
2023-03-08T07:16:09.511Z,5.30
2023-03-08T07:18:36.722Z,6.43
2023-03-08T07:21:04.047Z,6.27
2023-03-08T07:23:30.935Z,5.33
2023-03-08T07:25:57.911Z,5.20
2023-03-08T07:28:24.916Z,6.23
2023-03-08T07:30:53.116Z,5.60
2023-03-08T07:33:21.427Z,5.67
2023-03-08T07:35:49.125Z,5.13
2023-03-08T07:38:17.131Z,4.93
2023-03-08T07:40:44.444Z,5.73
2023-03-08T07:43:11.563Z,4.27
2023-03-08T07:46:04.766Z,4.83
2023-03-08T07:48:32.734Z,4.30
2023-03-08T07:51:09.514Z,4.70
2023-03-08T07:53:37.778Z,4.40
2023-03-08T07:56:05.301Z,4.53
2023-03-08T07:58:33.165Z,4.40
2023-03-08T08:01:00.052Z,4.50
2023-03-08T08:03:29.120Z,5.00
2023-03-08T08:05:56.067Z,5.10
2023-03-08T08:08:22.968Z,4.60
2023-03-08T08:10:49.858Z,4.20
2023-03-08T08:13:16.780Z,4.37
2023-03-08T08:15:43.669Z,4.70
2023-03-08T08:18:10.570Z,4.60
2023-03-08T08:20:37.900Z,4.37
2023-03-08T08:23:07.843Z,4.40
2023-03-08T08:25:34.762Z,3.70
2023-03-08T08:28:01.685Z,4.70
2023-03-08T08:30:28.576Z,4.60
2023-03-08T08:32:55.461Z,4.33
2023-03-08T08:35:25.479Z,4.90
2023-03-08T08:38:00.957Z,4.00
2023-03-08T08:40:28.448Z,4.13
2023-03-08T08:42:55.411Z,3.83
2023-03-08T08:45:22.275Z,3.70
2023-03-08T08:47:49.168Z,4.40
2023-03-08T08:50:16.304Z,4.37
2023-03-08T08:52:43.206Z,5.60
2023-03-08T08:55:10.249Z,4.23
2023-03-08T08:57:37.168Z,3.80
2023-03-08T09:00:10.720Z,4.80
2023-03-08T09:02:37.740Z,4.40
2023-03-08T09:05:04.915Z,4.10
2023-03-08T09:07:31.810Z,4.50
2023-03-08T09:10:00.521Z,4.43
2023-03-08T09:12:29.706Z,4.37
2023-03-08T09:14:56.577Z,4.13
2023-03-08T09:17:23.458Z,4.20
2023-03-08T09:19:50.449Z,4.07
2023-03-08T09:22:17.580Z,3.73
2023-03-08T09:24:47.938Z,4.20
2023-03-08T09:27:14.836Z,4.33
2023-03-08T09:29:41.713Z,4.07
2023-03-08T09:32:08.781Z,4.17
2023-03-08T09:34:35.815Z,3.17
2023-03-08T09:37:03.748Z,3.70
2023-03-08T09:39:30.608Z,3.70
2023-03-08T09:42:05.931Z,3.10
2023-03-08T09:45:07.811Z,3.70
2023-03-08T09:47:50.087Z,3.53
2023-03-08T09:50:35.757Z,4.10
2023-03-08T09:53:34.815Z,4.50
2023-03-08T09:56:29.501Z,3.50
2023-03-08T09:59:05.953Z,3.87
2023-03-08T10:02:19.881Z,3.90
2023-03-08T10:05:13.184Z,3.27
2023-03-08T10:07:52.146Z,3.60
2023-03-08T10:11:00.447Z,2.70
2023-03-08T10:13:30.332Z,2.90
2023-03-08T10:16:17.055Z,3.23
2023-03-08T10:19:01.975Z,3.37
2023-03-08T10:21:31.678Z,3.10
2023-03-08T10:24:12.317Z,2.60
2023-03-08T10:26:41.785Z,2.93
2023-03-08T10:29:14.408Z,3.00
2023-03-08T10:31:44.291Z,2.80
2023-03-08T10:34:18.392Z,2.50
2023-03-08T10:36:58.118Z,2.70
2023-03-08T10:39:25.049Z,2.50
2023-03-08T10:41:58.602Z,2.37
2023-03-08T10:44:42.779Z,2.50
2023-03-08T10:47:30.938Z,2.50
2023-03-08T10:50:15.351Z,2.60
2023-03-08T10:52:44.040Z,3.00
2023-03-08T10:55:20.461Z,2.60
2023-03-08T10:57:56.223Z,2.97
2023-03-08T11:00:36.533Z,2.40
2023-03-08T11:03:21.383Z,2.77
2023-03-08T11:06:13.719Z,3.03
2023-03-08T11:09:00.005Z,2.87
2023-03-08T11:11:27.705Z,2.73
2023-03-08T11:13:55.429Z,2.63
2023-03-08T11:16:34.361Z,2.20
2023-03-08T11:19:51.075Z,2.37
2023-03-08T11:22:47.735Z,2.37
2023-03-08T11:25:46.057Z,2.93
2023-03-08T11:28:29.372Z,2.73
2023-03-08T11:31:27.292Z,3.07
2023-03-08T11:35:07.418Z,3.50
2023-03-08T11:37:47.788Z,3.03
2023-03-08T11:40:17.723Z,3.80
2023-03-08T11:43:05.201Z,3.37
2023-03-08T11:46:02.221Z,3.07
2023-03-08T11:49:04.412Z,3.07
2023-03-08T11:51:57.832Z,3.00
2023-03-08T11:55:10.189Z,2.80
2023-03-08T11:57:45.554Z,2.67
2023-03-08T12:00:26.467Z,2.70
2023-03-08T12:02:57.430Z,2.70
2023-03-08T12:05:40.212Z,3.27
2023-03-08T12:08:29.363Z,3.23
2023-03-08T12:11:03.351Z,10.63
2023-03-08T12:13:42.108Z,6.07
2023-03-08T12:16:26.312Z,4.57
2023-03-08T12:19:43.804Z,4.13
2023-03-08T12:22:33.459Z,3.10
2023-03-08T12:25:22.532Z,3.97
2023-03-08T12:28:00.204Z,3.60
2023-03-08T12:30:53.998Z,4.10
2023-03-08T12:33:21.509Z,3.70
2023-03-08T12:35:57.793Z,3.20
2023-03-08T12:38:38.153Z,3.37
2023-03-08T12:41:21.557Z,3.57
2023-03-08T12:44:07.639Z,4.17
2023-03-08T12:47:02.372Z,3.93
2023-03-08T12:49:50.541Z,3.33
2023-03-08T12:52:20.446Z,3.50
2023-03-08T12:55:01.100Z,2.50
2023-03-08T12:57:35.010Z,2.57
2023-03-08T13:00:26.664Z,2.60
2023-03-08T13:03:02.678Z,2.70
2023-03-08T13:05:31.451Z,2.80
2023-03-08T13:08:06.918Z,3.00
2023-03-08T13:10:48.961Z,3.00
2023-03-08T13:13:57.670Z,3.07
2023-03-08T13:16:39.383Z,4.20
2023-03-08T13:19:15.410Z,3.07
2023-03-08T13:22:08.549Z,2.60
2023-03-08T13:25:00.129Z,2.53
2023-03-08T13:27:54.012Z,4.50
2023-03-08T13:30:38.720Z,3.23
2023-03-08T13:33:12.925Z,3.57
2023-03-08T13:35:40.022Z,3.00
2023-03-08T13:38:06.988Z,2.70
2023-03-08T13:40:34.027Z,3.23
2023-03-08T13:43:08.547Z,2.80
2023-03-08T13:45:35.820Z,3.53
2023-03-08T13:48:08.514Z,3.00
2023-03-08T13:50:43.986Z,2.97
2023-03-08T13:53:18.492Z,2.33
2023-03-08T13:55:49.525Z,2.57
2023-03-08T13:58:33.435Z,2.43
2023-03-08T14:01:14.858Z,2.07
2023-03-08T14:03:43.725Z,2.43
2023-03-08T14:06:23.229Z,2.40
2023-03-08T14:08:51.337Z,2.60
2023-03-08T14:11:30.472Z,17.43
2023-03-08T14:13:59.450Z,4.40
2023-03-08T14:16:36.835Z,3.27
2023-03-08T14:19:33.036Z,3.10
2023-03-08T14:22:08.888Z,2.00
2023-03-08T14:24:37.222Z,2.20
2023-03-08T14:27:38.808Z,2.60
2023-03-08T14:30:29.584Z,2.20
2023-03-08T14:33:13.998Z,2.20
2023-03-08T14:35:45.505Z,1.93
2023-03-08T14:38:25.050Z,2.33
2023-03-08T14:40:52.578Z,2.60
2023-03-08T14:43:23.720Z,2.63
2023-03-08T14:45:58.622Z,3.10
2023-03-08T14:48:30.326Z,2.77
2023-03-08T14:51:06.094Z,2.37
2023-03-08T14:53:39.857Z,2.43
2023-03-08T14:56:16.896Z,2.70
2023-03-08T14:58:49.001Z,2.13
2023-03-08T15:01:34.789Z,2.50
2023-03-08T15:04:02.805Z,2.97
2023-03-08T15:06:35.403Z,2.70
2023-03-08T15:09:06.237Z,2.67
2023-03-08T15:11:33.179Z,2.40
2023-03-08T15:14:00.690Z,2.10
2023-03-08T15:16:27.847Z,2.37
2023-03-08T15:18:54.877Z,2.40
2023-03-08T15:21:28.628Z,2.53
2023-03-08T15:23:56.561Z,2.60
2023-03-08T15:26:31.427Z,2.67
2023-03-08T15:29:03.206Z,2.23
2023-03-08T15:31:31.442Z,2.30
2023-03-08T15:33:58.436Z,2.03
2023-03-08T15:36:25.305Z,2.50
2023-03-08T15:38:52.404Z,4.47
2023-03-08T15:41:19.324Z,2.90
2023-03-08T15:43:46.418Z,2.80
2023-03-08T15:46:14.789Z,2.47
2023-03-08T15:48:42.508Z,2.30
2023-03-08T15:51:19.121Z,2.20
2023-03-08T15:53:46.768Z,2.40
2023-03-08T15:56:13.683Z,2.90
2023-03-08T15:58:40.633Z,2.33
2023-03-08T16:01:07.822Z,2.27
2023-03-08T16:03:35.082Z,1.83
2023-03-08T16:06:03.120Z,2.10
2023-03-08T16:08:30.628Z,1.93
2023-03-08T16:11:03.654Z,2.87
2023-03-08T16:13:31.197Z,3.03
2023-03-08T16:16:00.219Z,3.57
2023-03-08T16:18:29.619Z,3.10
2023-03-08T16:20:58.364Z,3.33
2023-03-08T16:23:25.603Z,3.70
2023-03-08T16:26:15.122Z,4.53
2023-03-08T16:28:44.560Z,4.07
2023-03-08T16:31:11.595Z,3.20
2023-03-08T16:33:38.687Z,3.43
2023-03-08T16:36:05.746Z,3.40
2023-03-08T16:38:32.659Z,3.40
2023-03-08T16:41:11.817Z,3.03
2023-03-08T16:43:48.320Z,3.20
2023-03-08T16:46:21.113Z,3.90
2023-03-08T16:48:49.952Z,2.77
2023-03-08T16:51:19.340Z,3.20
2023-03-08T16:53:46.354Z,2.93
2023-03-08T16:56:26.105Z,3.30
2023-03-08T16:58:55.464Z,2.90
2023-03-08T17:01:24.021Z,4.10
2023-03-08T17:03:51.613Z,3.20
2023-03-08T17:06:21.867Z,3.57
2023-03-08T17:08:49.352Z,3.43
2023-03-08T17:11:25.792Z,4.30
2023-03-08T17:13:56.632Z,3.57
2023-03-08T17:16:26.991Z,4.27
2023-03-08T17:18:54.470Z,5.50
2023-03-08T17:21:22.862Z,4.50
2023-03-08T17:23:51.013Z,6.63
2023-03-08T17:26:22.382Z,7.30
2023-03-08T17:28:51.459Z,6.70
2023-03-08T17:31:21.474Z,5.90
2023-03-08T17:33:48.905Z,4.33
2023-03-08T17:36:16.444Z,4.53
2023-03-08T17:38:43.457Z,4.60
2023-03-08T17:41:14.256Z,3.53
2023-03-08T17:43:41.802Z,4.50
2023-03-08T17:46:15.297Z,3.33
2023-03-08T17:48:42.989Z,4.13
2023-03-08T17:51:19.955Z,3.60
2023-03-08T17:53:46.965Z,3.50
2023-03-08T17:56:24.900Z,3.90
2023-03-08T17:58:52.410Z,3.73
2023-03-08T18:01:22.984Z,3.60
2023-03-08T18:03:50.199Z,3.30
2023-03-08T18:06:38.225Z,4.10
2023-03-08T18:09:15.025Z,4.27
2023-03-08T18:11:42.595Z,3.43
2023-03-08T18:14:14.074Z,3.80
2023-03-08T18:16:42.572Z,3.50
2023-03-08T18:19:10.728Z,4.33
2023-03-08T18:21:40.862Z,4.57
2023-03-08T18:24:11.357Z,4.20
2023-03-08T18:26:38.248Z,4.43
2023-03-08T18:29:05.163Z,4.87
2023-03-08T18:31:35.031Z,4.90
2023-03-08T18:34:02.807Z,4.23
2023-03-08T18:36:30.021Z,4.87
2023-03-08T18:38:57.121Z,4.83
2023-03-08T18:41:28.304Z,4.67
2023-03-08T18:43:56.498Z,4.43
2023-03-08T18:46:29.221Z,4.30
2023-03-08T18:49:02.907Z,4.00
2023-03-08T18:51:31.714Z,4.33
2023-03-08T18:53:59.427Z,4.20
2023-03-08T18:56:27.471Z,4.20
2023-03-08T18:58:57.004Z,4.53
2023-03-08T19:01:24.420Z,4.03
2023-03-08T19:03:51.530Z,4.30
2023-03-08T19:06:18.418Z,4.70
2023-03-08T19:08:45.376Z,5.20
2023-03-08T19:11:22.208Z,5.43
2023-03-08T19:13:49.775Z,5.57
2023-03-08T19:16:22.388Z,5.50
2023-03-08T19:18:54.752Z,6.00
2023-03-08T19:21:25.184Z,6.20
2023-03-08T19:23:52.399Z,6.43
2023-03-08T19:26:38.800Z,6.90
2023-03-08T19:29:20.126Z,6.27
2023-03-08T19:31:55.884Z,5.30
2023-03-08T19:34:30.587Z,5.90
2023-03-08T19:36:58.596Z,5.20
2023-03-08T19:39:31.977Z,5.30
2023-03-08T19:42:02.223Z,5.57
2023-03-08T19:44:30.309Z,5.87
2023-03-08T19:46:57.896Z,5.90
2023-03-08T19:49:31.388Z,5.40
2023-03-08T19:52:03.881Z,6.40
2023-03-08T19:54:31.393Z,7.70
2023-03-08T19:56:59.310Z,6.90
2023-03-08T19:59:26.859Z,5.40
2023-03-08T20:01:55.726Z,5.10
2023-03-08T20:04:23.526Z,5.20
2023-03-08T20:06:51.767Z,3.70
2023-03-08T20:09:21.725Z,4.37
2023-03-08T20:11:53.103Z,5.53
2023-03-08T20:14:22.990Z,3.67
2023-03-08T20:16:51.113Z,5.13
2023-03-08T20:19:18.399Z,4.50
2023-03-08T20:21:45.359Z,5.10
2023-03-08T20:24:13.392Z,5.07
2023-03-08T20:26:41.926Z,5.27
2023-03-08T20:29:09.037Z,4.40
2023-03-08T20:31:35.984Z,4.30
2023-03-08T20:34:03.561Z,4.93
2023-03-08T20:36:30.483Z,4.87
2023-03-08T20:38:58.558Z,4.67
2023-03-08T20:41:25.959Z,4.40
2023-03-08T20:44:02.140Z,4.73
2023-03-08T20:46:35.502Z,4.30
2023-03-08T20:49:03.452Z,5.00
2023-03-08T20:51:30.410Z,4.20
2023-03-08T20:53:57.608Z,4.13
2023-03-08T20:56:26.078Z,4.63
2023-03-08T20:58:54.742Z,4.30
2023-03-08T21:01:31.262Z,4.80
2023-03-08T21:03:58.383Z,5.23
2023-03-08T21:06:30.093Z,4.50
2023-03-08T21:08:58.359Z,4.73
2023-03-08T21:11:25.262Z,5.50
2023-03-08T21:13:53.496Z,5.10
2023-03-08T21:16:22.846Z,5.30
2023-03-08T21:18:59.477Z,5.93
2023-03-08T21:21:39.498Z,4.70
2023-03-08T21:24:11.448Z,5.50
2023-03-08T21:26:38.320Z,5.27
2023-03-08T21:29:09.287Z,4.90
2023-03-08T21:31:41.008Z,5.03
2023-03-08T21:34:09.006Z,3.87
2023-03-08T21:36:37.988Z,4.80
2023-03-08T21:39:06.660Z,4.97
2023-03-08T21:41:37.897Z,5.20
2023-03-08T21:44:09.881Z,5.10
2023-03-08T21:46:38.691Z,5.13
2023-03-08T21:49:06.866Z,5.83
2023-03-08T21:51:34.666Z,6.30
2023-03-08T21:54:01.763Z,6.40
2023-03-08T21:56:28.646Z,5.40
2023-03-08T21:58:56.423Z,5.30
2023-03-08T22:01:27.853Z,5.23
2023-03-08T22:03:56.078Z,5.53
2023-03-08T22:06:23.780Z,6.10
2023-03-08T22:08:51.017Z,5.03
2023-03-08T22:11:19.350Z,4.80
2023-03-08T22:13:59.614Z,4.23
2023-03-08T22:16:28.053Z,5.20
2023-03-08T22:19:01.376Z,4.43
2023-03-08T22:21:29.258Z,5.10
2023-03-08T22:23:59.342Z,4.67
2023-03-08T22:26:28.676Z,5.20
2023-03-08T22:28:56.356Z,6.17
2023-03-08T22:31:25.934Z,5.40
2023-03-08T22:33:52.862Z,5.00
2023-03-08T22:36:21.598Z,4.47
2023-03-08T22:38:48.525Z,4.20
2023-03-08T22:41:20.130Z,3.90
2023-03-08T22:43:47.746Z,5.10
2023-03-08T22:46:22.762Z,4.97
2023-03-08T22:48:51.266Z,4.57
2023-03-08T22:51:21.177Z,5.60
2023-03-08T22:53:48.121Z,4.67
2023-03-08T22:56:25.075Z,5.10
2023-03-08T22:58:52.385Z,5.13
2023-03-08T23:01:21.913Z,4.60
2023-03-08T23:03:50.572Z,3.93
2023-03-08T23:06:18.872Z,4.70
2023-03-08T23:08:47.142Z,5.30
2023-03-08T23:11:14.698Z,5.30
2023-03-08T23:13:41.862Z,4.33
2023-03-08T23:16:12.669Z,5.90
2023-03-08T23:18:39.814Z,5.30
2023-03-08T23:21:12.618Z,5.87
2023-03-08T23:23:39.785Z,5.00
2023-03-08T23:26:09.487Z,4.53
2023-03-08T23:28:36.730Z,5.23
2023-03-08T23:31:13.951Z,4.93
2023-03-08T23:33:41.972Z,4.90
2023-03-08T23:36:11.592Z,5.30
2023-03-08T23:38:38.542Z,5.80
2023-03-08T23:41:07.632Z,5.70
2023-03-08T23:43:35.927Z,5.10
2023-03-08T23:46:18.242Z,5.80
2023-03-08T23:48:47.049Z,5.90
2023-03-08T23:51:18.495Z,6.03
2023-03-08T23:53:48.224Z,5.40
2023-03-08T23:56:37.520Z,5.50
2023-03-08T23:59:17.836Z,4.90
